createdAt,value
2018-11-06T00:01:51.202Z,8.80
2018-11-06T00:04:19.484Z,8.70
2018-11-06T00:06:47.765Z,8.60
2018-11-06T00:09:16.095Z,8.50
2018-11-06T00:11:44.319Z,8.40
2018-11-06T00:14:12.588Z,8.40
2018-11-06T00:16:40.852Z,8.40
2018-11-06T00:19:09.130Z,8.40
2018-11-06T00:21:37.401Z,8.40
2018-11-06T00:24:05.777Z,8.40
2018-11-06T00:26:34.049Z,8.40
2018-11-06T00:29:02.320Z,8.30
2018-11-06T00:31:30.596Z,8.30
2018-11-06T00:34:00.012Z,8.30
2018-11-06T00:36:28.229Z,8.20
2018-11-06T00:38:56.491Z,8.20
2018-11-06T00:41:24.757Z,8.20
2018-11-06T00:43:53.029Z,8.10
2018-11-06T00:46:21.302Z,8.00
2018-11-06T00:48:49.575Z,7.90
2018-11-06T00:51:17.849Z,7.80
2018-11-06T00:53:46.364Z,7.80
2018-11-06T00:56:14.648Z,7.70
2018-11-06T00:58:42.916Z,7.80
2018-11-06T01:01:11.168Z,7.70
2018-11-06T01:03:44.671Z,7.70
2018-11-06T01:06:12.944Z,7.60
2018-11-06T01:08:42.114Z,7.60
2018-11-06T01:11:10.384Z,7.60
2018-11-06T01:13:38.664Z,7.50
2018-11-06T01:16:06.928Z,7.40
2018-11-06T01:18:35.198Z,7.40
2018-11-06T01:21:03.481Z,7.40
2018-11-06T01:23:31.754Z,7.30
2018-11-06T01:26:00.052Z,7.30
2018-11-06T01:28:28.355Z,7.30
2018-11-06T01:30:56.686Z,7.30
2018-11-06T01:33:24.948Z,7.20
2018-11-06T01:35:53.233Z,7.20
2018-11-06T01:38:21.923Z,7.20
2018-11-06T01:40:50.228Z,7.20
2018-11-06T01:43:18.492Z,7.20
2018-11-06T01:45:46.848Z,7.20
2018-11-06T01:48:15.174Z,7.20
2018-11-06T01:50:43.450Z,7.20
2018-11-06T01:53:11.737Z,7.20
2018-11-06T01:55:39.996Z,7.20
2018-11-06T01:58:08.273Z,7.10
2018-11-06T02:00:36.543Z,7.00
2018-11-06T02:03:04.956Z,7.10
2018-11-06T02:05:33.213Z,7.10
2018-11-06T02:08:01.509Z,7.10
2018-11-06T02:10:29.780Z,7.00
2018-11-06T02:12:58.073Z,7.00
2018-11-06T02:15:26.353Z,7.00
2018-11-06T02:17:54.624Z,7.00
2018-11-06T02:20:22.918Z,6.80
2018-11-06T02:22:51.199Z,6.80
2018-11-06T02:25:19.491Z,6.80
2018-11-06T02:27:47.751Z,6.80
2018-11-06T02:30:17.197Z,6.70
2018-11-06T02:32:46.182Z,6.70
2018-11-06T02:35:14.478Z,6.80
2018-11-06T02:37:42.744Z,6.70
2018-11-06T02:40:13.072Z,6.70
2018-11-06T02:42:41.720Z,6.80
2018-11-06T02:45:10.844Z,6.80
2018-11-06T02:47:39.424Z,6.70
2018-11-06T02:50:08.321Z,6.60
2018-11-06T02:52:36.609Z,6.60
2018-11-06T02:55:05.944Z,6.70
2018-11-06T02:57:34.224Z,6.70
2018-11-06T03:00:02.498Z,6.70
2018-11-06T03:02:30.920Z,6.70
2018-11-06T03:04:59.115Z,6.70
2018-11-06T03:07:27.377Z,6.70
2018-11-06T03:09:55.646Z,6.70
2018-11-06T03:12:23.892Z,6.70
2018-11-06T03:14:52.160Z,6.70
2018-11-06T03:17:20.420Z,6.60
2018-11-06T03:19:48.674Z,6.50
2018-11-06T03:22:16.924Z,6.50
2018-11-06T03:24:45.189Z,6.50
2018-11-06T03:27:13.456Z,6.50
2018-11-06T03:29:41.729Z,6.50
2018-11-06T03:32:10.001Z,6.50
2018-11-06T03:34:38.277Z,6.50
2018-11-06T03:37:06.568Z,6.50
2018-11-06T03:39:34.904Z,6.40
2018-11-06T03:42:03.169Z,6.40
2018-11-06T03:44:31.456Z,6.40
2018-11-06T03:46:59.740Z,6.40
2018-11-06T03:49:28.019Z,6.40
2018-11-06T03:51:56.377Z,6.30
2018-11-06T03:54:24.604Z,6.30
2018-11-06T03:56:52.888Z,6.30
2018-11-06T03:59:21.169Z,6.40
2018-11-06T04:01:49.424Z,6.30
2018-11-06T04:04:17.690Z,6.30
2018-11-06T04:06:45.956Z,6.30
2018-11-06T04:09:14.249Z,6.30
2018-11-06T04:11:42.615Z,6.30
2018-11-06T04:14:11.219Z,6.30
2018-11-06T04:16:39.904Z,6.30
2018-11-06T04:19:08.508Z,6.30
2018-11-06T04:21:37.816Z,6.30
2018-11-06T04:24:07.956Z,6.30
2018-11-06T04:26:37.053Z,6.30
2018-11-06T04:29:06.236Z,6.20
2018-11-06T04:31:35.079Z,6.20
2018-11-06T04:34:03.349Z,6.20
2018-11-06T04:36:31.760Z,6.10
2018-11-06T04:39:00.053Z,6.10
2018-11-06T04:41:28.534Z,6.10
2018-11-06T04:43:56.800Z,6.00
2018-11-06T04:46:25.241Z,6.00
2018-11-06T04:48:53.615Z,6.00
2018-11-06T04:51:22.074Z,6.00
2018-11-06T04:53:50.396Z,6.00
2018-11-06T04:56:18.681Z,6.00
2018-11-06T04:58:46.936Z,6.00
2018-11-06T05:01:15.225Z,6.00
2018-11-06T05:03:46.716Z,6.00
2018-11-06T05:06:15.809Z,6.00
2018-11-06T05:08:44.220Z,6.00
2018-11-06T05:11:12.636Z,5.90
2018-11-06T05:13:40.914Z,5.90
2018-11-06T05:16:09.252Z,5.80
2018-11-06T05:18:37.527Z,5.70
2018-11-06T05:21:06.496Z,5.70
2018-11-06T05:23:34.876Z,5.80
2018-11-06T05:26:03.154Z,5.80
2018-11-06T05:28:31.432Z,5.80
2018-11-06T05:30:59.712Z,5.70
2018-11-06T05:33:28.040Z,5.80
2018-11-06T05:35:56.353Z,5.70
2018-11-06T05:38:24.625Z,5.70
2018-11-06T05:40:58.457Z,5.80
2018-11-06T05:43:26.725Z,5.80
2018-11-06T05:45:55.408Z,5.90
2018-11-06T05:48:23.669Z,5.90
2018-11-06T05:50:51.957Z,5.80
2018-11-06T05:53:20.462Z,5.80
2018-11-06T05:55:49.285Z,5.80
2018-11-06T05:58:17.630Z,5.80
2018-11-06T06:00:46.125Z,5.70
2018-11-06T06:03:14.410Z,5.60
2018-11-06T06:05:42.720Z,5.60
2018-11-06T06:08:10.997Z,5.70
2018-11-06T06:10:39.283Z,5.80
2018-11-06T06:13:07.825Z,5.80
2018-11-06T06:15:36.113Z,5.90
2018-11-06T06:18:04.398Z,5.90
2018-11-06T06:20:32.708Z,5.90
2018-11-06T06:23:01.154Z,6.00
2018-11-06T06:25:29.428Z,6.00
2018-11-06T06:27:57.707Z,5.90
2018-11-06T06:30:25.976Z,5.90
2018-11-06T06:32:54.257Z,5.90
2018-11-06T06:35:22.540Z,6.00
2018-11-06T06:37:50.836Z,6.10
2018-11-06T06:40:19.153Z,6.20
2018-11-06T06:42:47.777Z,6.30
2018-11-06T06:45:17.297Z,6.40
2018-11-06T06:47:45.573Z,6.40
2018-11-06T06:50:15.086Z,6.40
2018-11-06T06:52:43.876Z,6.40
2018-11-06T06:55:13.249Z,6.40
2018-11-06T06:57:42.377Z,6.50
2018-11-06T07:00:12.873Z,6.60
2018-11-06T07:02:41.465Z,6.60
2018-11-06T07:05:12.316Z,6.70
2018-11-06T07:07:41.530Z,6.80
2018-11-06T07:10:11.561Z,6.90
2018-11-06T07:12:40.535Z,6.90
2018-11-06T07:15:11.385Z,6.90
2018-11-06T07:17:39.744Z,7.10
2018-11-06T07:20:11.773Z,7.20
2018-11-06T07:22:40.133Z,7.30
2018-11-06T07:25:09.696Z,7.50
2018-11-06T07:27:38.048Z,7.50
2018-11-06T07:30:09.764Z,7.70
2018-11-06T07:32:38.174Z,7.80
2018-11-06T07:35:06.974Z,7.90
2018-11-06T07:37:35.076Z,8.10
2018-11-06T07:40:03.688Z,8.30
2018-11-06T07:42:31.973Z,8.40
2018-11-06T07:45:00.244Z,8.60
2018-11-06T07:47:28.799Z,8.70
2018-11-06T07:49:57.164Z,8.80
2018-11-06T07:52:25.360Z,9.00
2018-11-06T07:54:53.680Z,9.00
2018-11-06T07:57:21.961Z,9.20
2018-11-06T07:59:50.585Z,9.30
2018-11-06T08:02:18.857Z,9.50
2018-11-06T08:04:47.113Z,9.70
2018-11-06T08:07:15.381Z,9.90
2018-11-06T08:09:43.705Z,10.00
2018-11-06T08:12:11.934Z,10.20
2018-11-06T08:14:40.285Z,10.40
2018-11-06T08:17:08.493Z,10.60
2018-11-06T08:19:36.758Z,10.80
2018-11-06T08:22:05.269Z,11.00
2018-11-06T08:24:33.535Z,11.20
2018-11-06T08:27:01.800Z,11.30
2018-11-06T08:29:30.072Z,11.50
2018-11-06T08:31:58.685Z,11.60
2018-11-06T08:34:26.605Z,11.70
2018-11-06T08:36:54.964Z,11.80
2018-11-06T08:39:23.164Z,12.00
2018-11-06T08:41:51.430Z,12.20
2018-11-06T08:44:19.699Z,12.40
2018-11-06T08:46:47.980Z,12.60
2018-11-06T08:49:16.246Z,12.70
2018-11-06T08:51:44.536Z,12.80
2018-11-06T08:54:12.809Z,12.80
2018-11-06T08:56:41.072Z,13.00
2018-11-06T08:59:09.431Z,13.10
2018-11-06T09:01:37.721Z,13.20
2018-11-06T09:04:05.997Z,13.40
2018-11-06T09:06:34.262Z,13.60
2018-11-06T09:09:02.668Z,13.80
2018-11-06T09:11:30.837Z,14.00
2018-11-06T09:13:59.097Z,14.20
2018-11-06T09:16:27.373Z,14.30
2018-11-06T09:18:55.780Z,14.40
2018-11-06T09:21:24.044Z,14.50
2018-11-06T09:23:52.342Z,14.60
2018-11-06T09:26:20.600Z,14.70
2018-11-06T09:28:48.889Z,14.80
2018-11-06T09:31:17.165Z,14.90
2018-11-06T09:33:45.433Z,15.10
2018-11-06T09:36:13.706Z,15.20
2018-11-06T09:38:41.981Z,15.40
2018-11-06T09:41:10.292Z,15.50
2018-11-06T09:43:38.525Z,15.60
2018-11-06T09:46:06.802Z,15.80
2018-11-06T09:48:35.053Z,15.90
2018-11-06T09:51:03.333Z,16.00
2018-11-06T09:53:31.577Z,16.10
2018-11-06T09:55:59.860Z,16.20
2018-11-06T09:58:28.124Z,16.30
2018-11-06T10:00:56.394Z,16.40
2018-11-06T10:03:24.672Z,16.50
2018-11-06T10:05:52.933Z,16.60
2018-11-06T10:08:21.209Z,16.60
2018-11-06T10:10:49.503Z,16.70
2018-11-06T10:13:17.772Z,16.80
2018-11-06T10:15:46.099Z,16.90
2018-11-06T10:18:14.358Z,17.00
2018-11-06T10:20:42.622Z,17.00
2018-11-06T10:23:10.888Z,17.00
2018-11-06T10:25:39.161Z,17.10
2018-11-06T10:28:07.425Z,17.20
2018-11-06T10:30:35.766Z,17.20
2018-11-06T10:33:04.360Z,17.30
2018-11-06T10:35:32.640Z,17.30
2018-11-06T10:38:00.959Z,17.50
2018-11-06T10:40:29.195Z,17.60
2018-11-06T10:42:57.481Z,17.70
2018-11-06T10:45:25.823Z,17.70
2018-11-06T10:47:54.096Z,17.70
2018-11-06T10:50:22.392Z,17.70
2018-11-06T10:52:50.661Z,17.70
2018-11-06T10:55:18.966Z,17.80
2018-11-06T10:57:47.300Z,17.80
2018-11-06T11:00:20.925Z,17.90
2018-11-06T11:02:54.618Z,18.00
2018-11-06T11:05:24.919Z,18.00
2018-11-06T11:07:53.201Z,18.00
2018-11-06T11:10:21.523Z,18.00
2018-11-06T11:12:49.802Z,18.00
2018-11-06T11:15:18.104Z,18.10
2018-11-06T11:17:46.394Z,18.30
2018-11-06T11:20:15.204Z,18.30
2018-11-06T11:22:43.748Z,18.30
2018-11-06T11:25:13.289Z,18.30
2018-11-06T11:27:42.199Z,18.30
2018-11-06T11:30:12.002Z,18.40
2018-11-06T11:32:41.505Z,18.50
2018-11-06T11:35:09.829Z,18.50
2018-11-06T11:37:38.229Z,18.40
2018-11-06T11:40:08.180Z,18.30
2018-11-06T11:42:36.471Z,18.30
2018-11-06T11:45:05.905Z,18.40
2018-11-06T11:47:34.205Z,18.50
2018-11-06T11:50:02.501Z,18.50
2018-11-06T11:52:30.777Z,18.60
2018-11-06T11:54:59.062Z,18.50
2018-11-06T11:57:27.481Z,18.60
2018-11-06T11:59:55.774Z,18.60
2018-11-06T12:02:24.053Z,18.70
2018-11-06T12:04:52.323Z,18.80
2018-11-06T12:07:20.592Z,18.80
2018-11-06T12:09:48.876Z,18.90
2018-11-06T12:12:17.161Z,19.00
2018-11-06T12:14:45.524Z,19.00
2018-11-06T12:17:13.806Z,19.00
2018-11-06T12:19:42.070Z,18.90
2018-11-06T12:22:10.331Z,19.00
2018-11-06T12:24:38.719Z,19.00
2018-11-06T12:27:06.908Z,19.10
2018-11-06T12:29:35.160Z,19.10
2018-11-06T12:32:03.432Z,19.10
2018-11-06T12:34:31.740Z,19.10
2018-11-06T12:37:00.049Z,19.10
2018-11-06T12:39:28.315Z,19.10
2018-11-06T12:41:56.581Z,19.10
2018-11-06T12:44:24.907Z,19.20
2018-11-06T12:46:53.193Z,19.30
2018-11-06T12:49:21.513Z,19.50
2018-11-06T12:51:49.785Z,19.60
2018-11-06T12:54:18.060Z,19.60
2018-11-06T12:56:46.341Z,19.60
2018-11-06T12:59:14.620Z,19.70
2018-11-06T13:01:43.325Z,19.70
2018-11-06T13:04:11.608Z,19.80
2018-11-06T13:06:39.869Z,20.00
2018-11-06T13:09:09.508Z,20.10
2018-11-06T13:11:38.192Z,20.10
2018-11-06T13:14:06.874Z,20.20
2018-11-06T13:16:35.184Z,20.30
2018-11-06T13:19:03.436Z,20.30
2018-11-06T13:21:32.181Z,20.40
2018-11-06T13:24:00.447Z,20.50
2018-11-06T13:26:28.838Z,20.50
2018-11-06T13:28:56.981Z,20.50
2018-11-06T13:31:25.261Z,20.50
2018-11-06T13:33:53.529Z,20.40
2018-11-06T13:36:21.800Z,20.30
2018-11-06T13:38:51.097Z,20.20
2018-11-06T13:41:19.352Z,20.20
2018-11-06T13:43:47.814Z,20.20
2018-11-06T13:46:15.976Z,20.20
2018-11-06T13:48:44.231Z,20.30
2018-11-06T13:51:12.505Z,20.30
2018-11-06T13:53:40.837Z,20.40
2018-11-06T13:56:09.120Z,20.40
2018-11-06T13:58:37.397Z,20.50
2018-11-06T14:01:05.990Z,20.50
2018-11-06T14:03:34.368Z,20.60
2018-11-06T14:06:03.639Z,20.60
2018-11-06T14:08:32.026Z,20.70
2018-11-06T14:11:00.276Z,20.50
2018-11-06T14:13:29.828Z,20.50
2018-11-06T14:15:59.357Z,20.40
2018-11-06T14:18:27.657Z,20.30
2018-11-06T14:20:55.937Z,20.20
2018-11-06T14:23:24.220Z,20.20
2018-11-06T14:25:52.540Z,20.10
2018-11-06T14:28:21.785Z,20.10
2018-11-06T14:30:51.416Z,20.10
2018-11-06T14:33:19.744Z,20.10
2018-11-06T14:35:48.061Z,20.10
2018-11-06T14:38:16.311Z,20.00
2018-11-06T14:40:45.459Z,20.00
2018-11-06T14:43:13.917Z,19.90
2018-11-06T14:45:42.216Z,19.80
2018-11-06T14:48:10.506Z,19.80
2018-11-06T14:50:38.884Z,19.60
2018-11-06T14:53:07.157Z,19.60
2018-11-06T14:55:35.435Z,19.50
2018-11-06T14:58:03.697Z,19.40
2018-11-06T15:00:31.981Z,19.30
2018-11-06T15:03:00.254Z,19.20
2018-11-06T15:05:28.568Z,19.10
2018-11-06T15:07:56.789Z,19.10
2018-11-06T15:10:25.060Z,19.00
2018-11-06T15:12:53.605Z,18.90
2018-11-06T15:15:21.902Z,18.70
2018-11-06T15:17:50.472Z,18.60
2018-11-06T15:20:20.149Z,18.50
2018-11-06T15:22:48.467Z,18.40
2018-11-06T15:25:18.778Z,18.30
2018-11-06T15:27:47.042Z,18.20
2018-11-06T15:30:16.621Z,18.00
2018-11-06T15:32:44.871Z,17.80
2018-11-06T15:35:14.708Z,17.60
2018-11-06T15:37:44.157Z,17.50
2018-11-06T15:40:14.715Z,17.40
2018-11-06T15:42:43.227Z,17.20
2018-11-06T15:45:12.929Z,17.00
2018-11-06T15:47:41.869Z,16.80
2018-11-06T15:50:11.837Z,16.60
2018-11-06T15:52:40.524Z,16.40
2018-11-06T15:55:08.813Z,16.10
2018-11-06T15:57:37.897Z,15.90
2018-11-06T16:00:09.856Z,15.70
2018-11-06T16:02:38.136Z,15.60
2018-11-06T16:05:07.716Z,15.50
2018-11-06T16:07:36.737Z,15.40
2018-11-06T16:10:07.248Z,15.30
2018-11-06T16:12:35.866Z,15.20
2018-11-06T16:15:04.706Z,15.00
2018-11-06T16:17:33.239Z,14.90
2018-11-06T16:20:01.496Z,14.80
2018-11-06T16:22:31.252Z,14.60
2018-11-06T16:24:59.540Z,14.50
2018-11-06T16:27:29.930Z,14.30
2018-11-06T16:29:58.393Z,14.10
2018-11-06T16:32:27.950Z,14.10
2018-11-06T16:34:56.766Z,14.00
2018-11-06T16:37:25.454Z,14.00
2018-11-06T16:39:55.229Z,13.80
2018-11-06T16:42:23.734Z,13.80
2018-11-06T16:44:52.105Z,13.70
2018-11-06T16:47:20.675Z,13.70
2018-11-06T16:49:49.379Z,13.50
2018-11-06T16:52:17.685Z,13.30
2018-11-06T16:54:46.142Z,13.30
2018-11-06T16:57:15.033Z,13.10
2018-11-06T16:59:44.248Z,12.90
2018-11-06T17:02:12.648Z,12.90
2018-11-06T17:04:41.430Z,12.90
2018-11-06T17:07:10.220Z,12.80
2018-11-06T17:09:39.018Z,12.70
2018-11-06T17:12:07.917Z,12.60
2018-11-06T17:14:36.850Z,12.60
2018-11-06T17:17:06.570Z,12.50
2018-11-06T17:19:35.401Z,12.50
2018-11-06T17:22:04.190Z,12.50
2018-11-06T17:24:33.183Z,12.50
2018-11-06T17:27:02.258Z,12.50
2018-11-06T17:29:31.008Z,12.50
2018-11-06T17:32:00.315Z,12.50
2018-11-06T17:34:29.154Z,12.40
2018-11-06T17:36:58.764Z,12.40
2018-11-06T17:39:27.730Z,12.40
2018-11-06T17:41:56.566Z,12.40
2018-11-06T17:44:25.378Z,12.30
2018-11-06T17:46:54.333Z,12.20
2018-11-06T17:49:23.138Z,12.30
2018-11-06T17:51:52.673Z,12.30
2018-11-06T17:54:21.590Z,12.30
2018-11-06T17:56:50.139Z,12.30
2018-11-06T17:59:18.622Z,12.30
2018-11-06T18:01:47.098Z,12.20
2018-11-06T18:04:15.618Z,12.30
2018-11-06T18:06:43.869Z,12.20
2018-11-06T18:09:13.108Z,12.10
2018-11-06T18:11:41.409Z,12.00
2018-11-06T18:14:09.695Z,12.00
2018-11-06T18:16:38.085Z,11.90
2018-11-06T18:19:06.484Z,11.80
2018-11-06T18:21:34.784Z,11.80
2018-11-06T18:24:03.056Z,11.70
2018-11-06T18:26:31.336Z,11.70
2018-11-06T18:28:59.612Z,11.60
2018-11-06T18:31:27.924Z,11.60
2018-11-06T18:33:56.178Z,11.50
2018-11-06T18:36:24.451Z,11.50
2018-11-06T18:38:52.717Z,11.50
2018-11-06T18:41:20.973Z,11.50
2018-11-06T18:43:49.340Z,11.60
2018-11-06T18:46:17.669Z,11.60
2018-11-06T18:48:46.121Z,11.60
2018-11-06T18:51:14.392Z,11.60
2018-11-06T18:53:42.656Z,11.70
2018-11-06T18:56:10.942Z,11.70
2018-11-06T18:58:39.197Z,11.70
2018-11-06T19:01:07.473Z,11.70
2018-11-06T19:03:35.768Z,11.70
2018-11-06T19:06:04.049Z,11.70
2018-11-06T19:08:32.321Z,11.70
2018-11-06T19:11:00.584Z,11.60
2018-11-06T19:13:28.861Z,11.50
2018-11-06T19:15:57.128Z,11.40
2018-11-06T19:18:25.397Z,11.40
2018-11-06T19:20:53.717Z,11.30
2018-11-06T19:23:22.048Z,11.20
2018-11-06T19:25:50.340Z,11.20
2018-11-06T19:28:18.633Z,11.20
2018-11-06T19:30:46.893Z,11.20
2018-11-06T19:33:15.192Z,11.10
2018-11-06T19:35:43.467Z,11.00
2018-11-06T19:38:11.742Z,11.00
2018-11-06T19:40:40.099Z,10.90
2018-11-06T19:43:08.291Z,11.00
2018-11-06T19:45:36.559Z,11.00
2018-11-06T19:48:05.164Z,11.00
2018-11-06T19:50:33.407Z,11.00
2018-11-06T19:53:01.683Z,11.00
2018-11-06T19:55:29.968Z,10.80
2018-11-06T19:57:58.245Z,10.80
2018-11-06T20:00:26.559Z,10.90
2018-11-06T20:02:54.863Z,11.20
2018-11-06T20:05:23.194Z,11.30
2018-11-06T20:07:52.117Z,11.40
2018-11-06T20:10:22.955Z,11.50
2018-11-06T20:12:52.244Z,11.60
2018-11-06T20:15:20.567Z,11.70
2018-11-06T20:17:48.921Z,11.70
2018-11-06T20:20:20.678Z,11.70
2018-11-06T20:22:49.112Z,11.60
2018-11-06T20:25:17.408Z,11.60
2018-11-06T20:27:45.746Z,11.60
2018-11-06T20:30:16.333Z,11.60
2018-11-06T20:32:44.612Z,11.60
2018-11-06T20:35:13.221Z,11.60
2018-11-06T20:37:41.540Z,11.70
2018-11-06T20:40:11.901Z,11.70
2018-11-06T20:42:40.765Z,11.90
2018-11-06T20:45:10.203Z,12.00
2018-11-06T20:47:38.544Z,12.10
2018-11-06T20:50:09.836Z,12.20
2018-11-06T20:52:38.130Z,12.20
2018-11-06T20:55:06.950Z,12.30
2018-11-06T20:57:35.389Z,12.30
2018-11-06T21:00:03.862Z,12.20
2018-11-06T21:02:32.041Z,12.20
2018-11-06T21:05:00.304Z,12.20
2018-11-06T21:07:28.577Z,12.20
2018-11-06T21:09:56.848Z,12.10
2018-11-06T21:12:25.120Z,12.10
2018-11-06T21:14:53.407Z,12.10
2018-11-06T21:17:21.689Z,12.10
2018-11-06T21:19:50.078Z,12.00
2018-11-06T21:22:18.212Z,12.00
2018-11-06T21:24:46.521Z,12.00
2018-11-06T21:27:14.766Z,11.90
2018-11-06T21:29:43.032Z,11.90
2018-11-06T21:32:11.328Z,11.80
2018-11-06T21:34:39.601Z,11.80
2018-11-06T21:37:07.869Z,11.80
2018-11-06T21:39:36.124Z,11.80
2018-11-06T21:42:04.455Z,11.80
2018-11-06T21:44:32.685Z,11.70
2018-11-06T21:47:00.957Z,11.70
2018-11-06T21:49:29.228Z,11.60
2018-11-06T21:51:57.518Z,11.60
2018-11-06T21:54:25.786Z,11.60
2018-11-06T21:56:54.052Z,11.50
2018-11-06T21:59:22.336Z,11.50
2018-11-06T22:01:50.600Z,11.50
2018-11-06T22:04:18.870Z,11.40
2018-11-06T22:06:47.168Z,11.40
2018-11-06T22:09:15.429Z,11.30
2018-11-06T22:11:43.738Z,11.30
2018-11-06T22:14:12.005Z,11.20
2018-11-06T22:16:40.312Z,11.20
2018-11-06T22:19:08.600Z,11.10
2018-11-06T22:21:36.999Z,11.10
2018-11-06T22:24:05.131Z,11.10
2018-11-06T22:26:33.389Z,11.10
2018-11-06T22:29:01.665Z,11.00
2018-11-06T22:31:29.981Z,11.00
2018-11-06T22:33:58.201Z,10.90
2018-11-06T22:36:26.600Z,10.90
2018-11-06T22:38:54.893Z,10.90
2018-11-06T22:41:23.156Z,10.90
2018-11-06T22:43:51.425Z,10.90
2018-11-06T22:46:19.697Z,10.80
2018-11-06T22:48:47.952Z,10.80
2018-11-06T22:51:16.304Z,10.80
2018-11-06T22:53:44.815Z,10.70
2018-11-06T22:56:13.111Z,10.70
2018-11-06T22:58:41.380Z,10.70
2018-11-06T23:01:15.009Z,10.60
2018-11-06T23:03:43.271Z,10.60
2018-11-06T23:06:11.694Z,10.50
2018-11-06T23:08:39.817Z,10.50
2018-11-06T23:11:08.093Z,10.50
2018-11-06T23:13:36.368Z,10.50
2018-11-06T23:16:04.660Z,10.40
2018-11-06T23:18:32.933Z,10.40
2018-11-06T23:21:01.235Z,10.40
2018-11-06T23:23:29.508Z,10.40
2018-11-06T23:25:57.764Z,10.30
2018-11-06T23:28:26.129Z,10.30
2018-11-06T23:30:54.421Z,10.20
2018-11-06T23:33:22.697Z,10.20
2018-11-06T23:35:51.021Z,10.20
2018-11-06T23:38:19.248Z,10.20
2018-11-06T23:40:47.512Z,10.10
2018-11-06T23:43:15.776Z,10.10
2018-11-06T23:45:44.054Z,10.10
2018-11-06T23:48:12.336Z,10.00
2018-11-06T23:50:40.617Z,10.00
2018-11-06T23:53:08.888Z,10.00
2018-11-06T23:55:37.160Z,10.00
2018-11-06T23:58:05.492Z,9.90
